• Join FlightAware (Why Join?)
  • Login
  • US Flag 
10:40PM EDT


 

Airport Tracker/Info


-or-


 

Live Flight TrackerFlight Track Log ✈ LAN931 ✈ 31-Jul-2013 ✈ SAME / MDZ - SCEL / SCL

Flight Track Log - Related Links

Times and Time Zones

All times are in EDT time to prevent confusion due to time zone crossing. See the LAN931 flight status page for this flight to view local times or setup timezone preferences in your user account.

Time Position Orientation Groundspeed Altitude Reporting Facility
EDT Latitude Longitude Course Direction KTS MPH feet Rate Location/Type
11:03AM -32.8570 -68.7910 161° South 172 198 3,400  Level FlightAware
11:03AM -32.8670 -68.7730 123° Southeast 190 219 4,000 3,180 Climbing FlightAware
11:03AM -32.8680 -68.7680 103° East 207 238 4,100 2,160 Climbing FlightAware
11:03AM -32.8700 -68.7420 95° East 237 273 4,900 3,240 Climbing FlightAware
11:03AM -32.8760 -68.7250 113° Southeast 233 268 6,000 4,440 Climbing FlightAware
11:04AM -32.8850 -68.7100 126° Southeast 223 257 7,200 4,440 Climbing FlightAware
11:04AM -32.8950 -68.6950 128° Southeast 213 245 8,300 3,840 Climbing FlightAware
11:04AM -32.9090 -68.6720 126° Southeast 212 244 9,700 3,060 Climbing FlightAware
11:05AM -32.9300 -68.6370 126° Southeast 230 265 11,400 2,460 Climbing FlightAware
11:05AM -32.9520 -68.5980 124° Southeast 256 295 12,700 2,220 Climbing FlightAware
11:06AM -32.9870 -68.5390 125° Southeast 292 336 14,400 1,440 Climbing FlightAware
11:07AM -33.0090 -68.5010 125° Southeast 302 348 14,600 2,400 Climbing FlightAware
11:07AM -33.0040 -68.4750 77° East 291 335 16,200 6,540 Climbing FlightAware
11:07AM -32.9970 -68.4560 66° East 272 313 17,000 3,180 Climbing FlightAware
11:07AM -32.9790 -68.4350 44° Northeast 252 290 17,900 2,400 Climbing FlightAware
11:08AM -32.9650 -68.4300 17° North 239 275 18,500 1,560 Climbing FlightAware
11:08AM -32.9330 -68.4380 348° North 239 275 19,300 1,440 Climbing FlightAware
11:09AM -32.9160 -68.4620 310° West 255 293 19,700 1,200 Climbing FlightAware
11:09AM -32.9120 -68.4860 281° West 293 337 19,900 1,020 Climbing FlightAware
11:09AM -32.9110 -68.5500 271° West 328 377 20,600 1,440 Climbing FlightAware
11:10AM -32.9110 -68.6160 270° West 345 397 21,700 2,580 Climbing FlightAware
11:10AM -32.9100 -68.6610 272° West 331 381 23,200 2,520 Climbing FlightAware
11:11AM -32.9090 -68.7340 271° West 329 379 24,800 2,280 Climbing FlightAware
11:12AM -32.9070 -68.8260 271° West 328 377 26,700 2,340 Climbing FlightAware
11:13AM -32.9060 -68.8950 271° West 322 371 27,900 1,020 Climbing FlightAware
11:13AM -32.9050 -68.9580 271° West 318 366 28,000 60 Climbing FlightAware
11:14AM -32.9040 -69.0300 271° West 325 374 28,000  Level FlightAware
11:14AM -32.9030 -69.0890 271° West 327 376 28,000  Level FlightAware
11:15AM -32.9010 -69.1540 272° West 328 377 28,000  Level FlightAware
11:16AM -32.9000 -69.2200 271° West 328 377 28,000  Level FlightAware
11:16AM -32.8990 -69.2870 271° West 329 379 28,000  Level FlightAware
11:17AM -32.8980 -69.3500 271° West 331 381 28,000  Level FlightAware
11:17AM -32.8960 -69.4150 272° West 329 379 28,000  Level FlightAware
11:18AM -32.8950 -69.4810 271° West 324 373 28,000  Level FlightAware
11:19AM -32.8940 -69.5460 271° West 323 372 28,000  Level FlightAware
11:19AM -32.8920 -69.6240 272° West 323 372 28,000  Level FlightAware
11:20AM -32.8910 -69.7110 271° West 323 372 28,000  Level FlightAware
11:21AM -32.8900 -69.7660 271° West 323 372 28,000  Level FlightAware
11:22AM -32.8890 -69.8230 271° West 323 372 28,000  Level FlightAware
11:23AM -32.8840 -69.9640 272° West 328 377 28,000 -300 Level FlightAware
11:23AM -32.8830 -70.0060 272° West 313 360 27,600 -1,080 Descending FlightAware
11:24AM -32.8740 -70.1040 276° West 290 334 26,400 -960 Descending FlightAware
11:25AM -32.8690 -70.1580 276° West 275 316 26,000 -2,040 Descending FlightAware
11:26AM -32.8620 -70.2490 275° West 293 337 23,400 -3,420 Descending FlightAware
11:26AM -32.8580 -70.3000 275° West 322 371 21,600 -2,340 Descending FlightAware
11:27AM -32.8540 -70.3660 274° West 318 366 20,300 -2,040 Descending FlightAware
11:28AM -32.8460 -70.4540 276° West 313 360 18,600 -1,440 Descending FlightAware
11:29AM -32.8400 -70.5240 276° West 312 359 18,000 -420 Descending FlightAware
11:29AM -32.8350 -70.5760 277° West 312 359 18,000  Level FlightAware
11:30AM -32.8300 -70.6290 276° West 312 359 18,000  Level FlightAware
11:30AM -32.8260 -70.6810 275° West 312 359 18,000  Level FlightAware
11:31AM -32.8210 -70.7330 277° West 312 359 18,000  Level FlightAware
11:32AM -32.8160 -70.7870 276° West 312 359 18,000 -2,760 Level FlightAware
11:34AM -32.8850 -70.7869 180° South  Level Estimated
11:35AM -32.9210 -70.7868 180° South  Level Estimated
11:36AM -32.9570 -70.7867 180° South  Level Estimated
11:36AM -33.1640 -70.7980 180° South 220 253 4,900  Level FlightAware
11:36AM -33.1930 -70.7970 178° South 200 230 4,800 -180 Descending FlightAware
11:37AM -33.2000 -70.7960 173° South 191 220 4,800 -720 Level FlightAware
11:37AM -33.2210 -70.7950 178° South 181 208 4,400 -1,260 Descending FlightAware
11:37AM -33.2460 -70.7940 178° South 181 208 3,900 -960 Descending FlightAware
11:38AM -33.2620 -70.7930 177° South 181 208 3,600 -420 Descending FlightAware
11:38AM -33.2800 -70.7920 177° South 181 208 3,600 -780 Level FlightAware
11:39AM -33.3040 -70.7910 178° South 174 200 2,800 -1,080 Descending FlightAware
11:39AM -33.3300 -70.7890 176° South 147 169 2,300 -480 Descending FlightAware
11:40AM -33.3460 -70.7880 177° South 147 169 2,300  Level FlightAware
11:42AM -33.3970 -70.7870 179° South 136 157 -1,140 Descending FlightAware
11:42AM -33.3930 -70.7710 73° East 136 157  Level FlightAware
11:43AM -33.3950 -70.7880 262° West 136 157  Level FlightAware
11:43AM -33.3940 -70.7880 360° North 136 157  Level FlightAware
11:43AM -33.4030 -70.7740 128° Southeast 136 157  Level FlightAware
11:44AM -33.3940 -70.7900 304° West 136 157  Level FlightAware
11:44AM -33.3960 -70.7720 98° East 136 157  Level FlightAware
11:45AM -33.3950 -70.7960 273° West 136 157  Level FlightAware
11:45AM -33.3910 -70.7800 73° East 136 157  Level FlightAware
11:48AM -33.3930 -70.7858 244° Southwest  Level Estimated
11:49AM -33.3930 -70.7858 244° Southwest  Level Estimated